NCAR-RAP Real-Time Weather Data

Output produced by METARs form (08 May 2021  15:54 UTC)
found at http://weather.rap.ucar.edu/surface/
 
KSIY 081453Z AUTO 00000KT 10SM CLR 06/M01 A3035 RMK AO2 SLP288 T00561006 53008
KSIY 081353Z AUTO 00000KT 10SM CLR 02/M03 A3033 RMK AO2 SLP286 T00171028
KSIY 081253Z AUTO 00000KT 10SM CLR 00/M04 A3033 RMK AO2 SLP283 T00001039
KSIY 081153Z AUTO 05003KT 10SM CLR 03/M01 A3032 RMK AO2 SLP278 T00331011 10089 20022 53005
KSIY 081053Z AUTO 36009KT 10SM CLR 03/M02 A3031 RMK AO2 SLP275 T00281017
KSIY 080953Z AUTO 34008KT 10SM CLR 04/M01 A3031 RMK AO2 SLP272 T00441011
KSIY 080853Z AUTO 33008KT 10SM CLR 06/M01 A3030 RMK AO2 SLP270 T00561011 53006
KSIY 080753Z AUTO 01009KT 10SM CLR 06/M01 A3030 RMK AO2 SLP268 T00561011 401780006
KSIY 080653Z AUTO 02009KT 10SM CLR 06/M02 A3029 RMK AO2 SLP267 T00611017
KSIY 080553Z AUTO 34011KT 10SM CLR 08/M02 A3028 RMK AO2 SLP264 T00831022 10167 20083 51015
KSIY 080453Z AUTO 34010KT 10SM CLR 09/M02 A3028 RMK AO2 SLP262 T00941017
KSIY 080353Z AUTO 36014KT 10SM CLR 10/M02 A3025 RMK AO2 SLP253 T01001017